Terminal Aerodrome Forecast
Issued by NWS

Home | Current Version | Previous Version | Text Only | Print | Product List | Glossary On
Versions: 1 2 3 4 5 6 7 8 9 10 11 12 13 14 15 16 17 18 19 20
000
FTUS46 KMTR 231855 AAA
TAFSTS
TAF AMD
KSTS 231855Z 2319/2418 VRB03KT P6SM -SHRA BKN006
     FM232000 19006KT P6SM VCSH BKN050
     FM240300 VRB03KT P6SM VCSH BKN050
     FM240800 VRB03KT 1/2SM FG OVC001=

USA.gov is the U.S. government's official web portal to all federal, state and local government web resources and services.